^^
Station Historical Data
Daily Summary for July 20, 2017 Units:  Both    English   Metric
« Previous Day
Next Day »
Daily Weekly Monthly Yearly Custom
  High: Low: Average:
Temperature: 76.6 °F /  24.8 °C 39.9 °F /  4.4 °C 57.2 °F /  14 °C
Dew Point: 23.2 °F /  -4.9 °C 9.7 °F /  -12.4 °C 18.1 °F /  -7.7 °C
Humidity: 47% 9% 25%
Wind Speed: 6.9mph /  11.1km/h - 0.7mph /  1.1km/h
Wind Gust: 11.0mph /  17.7km/h - -
Wind- - ESE
Pressure: 30.19 in /  1022.2 hPa 30.06 in /  1017.8 hPa -
Precipitation: 0.00 in /  0 mm    
Historical Graphs
 
 
Tabular Data for July 20, 2017
Time Temperature Dew Point Pressure Wind Wind Speed Wind Gust Humidity Rainfall Rate (Hourly) solar Conditions
00:05 48.0 °F /  8.9 °C 21.0 °F /  -6.1 °C 30.17in /  1021.6hPa Calm     34% 0.00in /  0mm 0.0 W/m2
00:11 47.7 °F /  8.7 °C 20.7 °F /  -6.3 °C 30.17in /  1021.6hPa Calm     34% 0.00in /  0mm 0.0 W/m2
00:17 47.3 °F /  8.5 °C 20.3 °F /  -6.5 °C 30.17in /  1021.6hPa Calm     34% 0.00in /  0mm 0.0 W/m2
00:23 46.9 °F /  8.3 °C 20.7 °F /  -6.3 °C 30.17in /  1021.6hPa Calm     35% 0.00in /  0mm 0.0 W/m2
00:29 46.6 °F /  8.1 °C 20.3 °F /  -6.5 °C 30.17in /  1021.6hPa Calm     35% 0.00in /  0mm 0.0 W/m2
00:35 46.0 °F /  7.8 °C 19.9 °F /  -6.7 °C 30.17in /  1021.6hPa Calm     35% 0.00in /  0mm 0.0 W/m2
00:41 45.7 °F /  7.6 °C 20.3 °F /  -6.5 °C 30.17in /  1021.6hPa Calm     36% 0.00in /  0mm 0.0 W/m2
00:47 45.3 °F /  7.4 °C 20.7 °F /  -6.3 °C 30.17in /  1021.6hPa Calm     37% 0.00in /  0mm 0.0 W/m2
00:53 45.0 °F /  7.2 °C 20.3 °F /  -6.5 °C 30.17in /  1021.6hPa Calm     37% 0.00in /  0mm 0.0 W/m2
00:59 44.8 °F /  7.1 °C 20.7 °F /  -6.3 °C 30.17in /  1021.6hPa Calm     38% 0.00in /  0mm 0.0 W/m2
01:05 44.6 °F /  7 °C 20.5 °F /  -6.4 °C 30.17in /  1021.6hPa Calm     38% 0.00in /  0mm 0.0 W/m2
01:11 44.4 °F /  6.9 °C 21.0 °F /  -6.1 °C 30.17in /  1021.6hPa Calm     39% 0.00in /  0mm 0.0 W/m2
01:17 44.4 °F /  6.9 °C 20.5 °F /  -6.4 °C 30.16in /  1021.2hPa Calm     38% 0.00in /  0mm 0.0 W/m2
01:23 44.2 °F /  6.8 °C 20.8 °F /  -6.2 °C 30.17in /  1021.6hPa Calm     39% 0.00in /  0mm 0.0 W/m2
01:29 44.2 °F /  6.8 °C 20.8 °F /  -6.2 °C 30.16in /  1021.2hPa Calm     39% 0.00in /  0mm 0.0 W/m2
01:35 44.1 °F /  6.7 °C 20.7 °F /  -6.3 °C 30.16in /  1021.2hPa Calm     39% 0.00in /  0mm 0.0 W/m2
01:41 43.9 °F /  6.6 °C 20.5 °F /  -6.4 °C 30.16in /  1021.2hPa Calm     39% 0.00in /  0mm 0.0 W/m2
01:47 43.5 °F /  6.4 °C 20.8 °F /  -6.2 °C 30.16in /  1021.2hPa Calm     40% 0.00in /  0mm 0.0 W/m2
01:53 43.3 °F /  6.3 °C 21.2 °F /  -6 °C 30.16in /  1021.2hPa Calm     41% 0.00in /  0mm 0.0 W/m2
01:59 43.2 °F /  6.2 °C 21.0 °F /  -6.1 °C 30.16in /  1021.2hPa Calm     41% 0.00in /  0mm 0.0 W/m2
02:05 43.2 °F /  6.2 °C 21.0 °F /  -6.1 °C 30.16in /  1021.2hPa Calm     41% 0.00in /  0mm 0.0 W/m2
02:11 43.2 °F /  6.2 °C 20.5 °F /  -6.4 °C 30.16in /  1021.2hPa Calm     40% 0.00in /  0mm 0.0 W/m2
02:17 43.0 °F /  6.1 °C 20.3 °F /  -6.5 °C 30.16in /  1021.2hPa Calm     40% 0.00in /  0mm 0.0 W/m2
02:23 42.8 °F /  6 °C 20.7 °F /  -6.3 °C 30.16in /  1021.2hPa Calm     41% 0.00in /  0mm 0.0 W/m2
02:29 42.8 °F /  6 °C 20.7 °F /  -6.3 °C 30.16in /  1021.2hPa Calm     41% 0.00in /  0mm 0.0 W/m2
02:35 43.0 °F /  6.1 °C 21.4 °F /  -5.9 °C 30.16in /  1021.2hPa Calm     42% 0.00in /  0mm 0.0 W/m2
02:41 42.8 °F /  6 °C 20.7 °F /  -6.3 °C 30.16in /  1021.2hPa Calm     41% 0.00in /  0mm 0.0 W/m2
02:47 42.8 °F /  6 °C 20.7 °F /  -6.3 °C 30.16in /  1021.2hPa Calm     41% 0.00in /  0mm 0.0 W/m2
02:53 42.8 °F /  6 °C 20.7 °F /  -6.3 °C 30.16in /  1021.2hPa Calm     41% 0.00in /  0mm 0.0 W/m2
02:59 43.0 °F /  6.1 °C 21.4 °F /  -5.9 °C 30.16in /  1021.2hPa Calm     42% 0.00in /  0mm 0.0 W/m2
03:05 43.0 °F /  6.1 °C 21.4 °F /  -5.9 °C 30.16in /  1021.2hPa Calm     42% 0.00in /  0mm 0.0 W/m2
03:11 43.0 °F /  6.1 °C 21.4 °F /  -5.9 °C 30.16in /  1021.2hPa Calm     42% 0.00in /  0mm 0.0 W/m2
03:17 42.6 °F /  5.9 °C 20.5 °F /  -6.4 °C 30.16in /  1021.2hPa Calm     41% 0.00in /  0mm 0.0 W/m2
03:23 42.6 °F /  5.9 °C 21.2 °F /  -6 °C 30.16in /  1021.2hPa Calm     42% 0.00in /  0mm 0.0 W/m2
03:29 42.4 °F /  5.8 °C 21.0 °F /  -6.1 °C 30.16in /  1021.2hPa Calm     42% 0.00in /  0mm 0.0 W/m2
03:35 42.3 °F /  5.7 °C 20.8 °F /  -6.2 °C 30.16in /  1021.2hPa Calm     42% 0.00in /  0mm 0.0 W/m2
03:41 42.1 °F /  5.6 °C 21.7 °F /  -5.7 °C 30.16in /  1021.2hPa Calm     44% 0.00in /  0mm 0.0 W/m2
03:47 41.9 °F /  5.5 °C 21.6 °F /  -5.8 °C 30.16in /  1021.2hPa Calm     44% 0.00in /  0mm 0.0 W/m2
03:53 41.7 °F /  5.4 °C 21.4 °F /  -5.9 °C 30.15in /  1020.9hPa Calm     44% 0.00in /  0mm 0.0 W/m2
03:59 41.5 °F /  5.3 °C 20.7 °F /  -6.3 °C 30.15in /  1020.9hPa Calm     43% 0.00in /  0mm 0.0 W/m2
04:05 41.5 °F /  5.3 °C 20.7 °F /  -6.3 °C 30.15in /  1020.9hPa Calm     43% 0.00in /  0mm 0.0 W/m2
04:11 41.7 °F /  5.4 °C 20.8 °F /  -6.2 °C 30.15in /  1020.9hPa ESE 0.9mph /  1.4km/h 1.0mph /  1.6km/h 43% 0.00in /  0mm 0.0 W/m2
04:17 41.7 °F /  5.4 °C 20.8 °F /  -6.2 °C 30.15in /  1020.9hPa Calm     43% 0.00in /  0mm 0.0 W/m2
04:23 41.9 °F /  5.5 °C 22.1 °F /  -5.5 °C 30.15in /  1020.9hPa Calm     45% 0.00in /  0mm 0.0 W/m2
04:29 42.1 °F /  5.6 °C 22.3 °F /  -5.4 °C 30.15in /  1020.9hPa Calm     45% 0.00in /  0mm 0.0 W/m2
04:35 42.4 °F /  5.8 °C 22.1 °F /  -5.5 °C 30.15in /  1020.9hPa Calm     44% 0.00in /  0mm 0.0 W/m2
04:41 42.6 °F /  5.9 °C 21.7 °F /  -5.7 °C 30.15in /  1020.9hPa Calm     43% 0.00in /  0mm 0.0 W/m2
04:47 43.0 °F /  6.1 °C 21.4 °F /  -5.9 °C 30.15in /  1020.9hPa Calm     42% 0.00in /  0mm 0.0 W/m2
04:53 43.2 °F /  6.2 °C 22.1 °F /  -5.5 °C 30.15in /  1020.9hPa Calm     43% 0.00in /  0mm 0.0 W/m2
04:59 43.2 °F /  6.2 °C 21.6 °F /  -5.8 °C 30.15in /  1020.9hPa NE 2.0mph /  3.2km/h 2.0mph /  3.2km/h 42% 0.00in /  0mm 0.0 W/m2
05:05 43.2 °F /  6.2 °C 21.0 °F /  -6.1 °C 30.16in /  1021.2hPa Calm   1.0mph /  1.6km/h 41% 0.00in /  0mm 0.0 W/m2
05:11 43.3 °F /  6.3 °C 21.2 °F /  -6 °C 30.16in /  1021.2hPa Calm     41% 0.00in /  0mm 0.0 W/m2
05:17 43.3 °F /  6.3 °C 21.2 °F /  -6 °C 30.15in /  1020.9hPa Calm     41% 0.00in /  0mm 0.0 W/m2
05:23 43.5 °F /  6.4 °C 20.8 °F /  -6.2 °C 30.16in /  1021.2hPa East 2.0mph /  3.2km/h 2.0mph /  3.2km/h 40% 0.00in /  0mm 0.0 W/m2
05:29 43.9 °F /  6.6 °C 21.2 °F /  -6 °C 30.16in /  1021.2hPa Calm     40% 0.00in /  0mm 0.0 W/m2
05:35 43.5 °F /  6.4 °C 20.8 °F /  -6.2 °C 30.16in /  1021.2hPa Calm     40% 0.00in /  0mm 0.0 W/m2
05:41 43.0 °F /  6.1 °C 20.3 °F /  -6.5 °C 30.16in /  1021.2hPa Calm     40% 0.00in /  0mm 0.0 W/m2
05:43 43.0 °F /  6.1 °C 20.8 °F /  -6.2 °C 30.16in /  1021.2hPa Calm   1.0mph /  1.6km/h 41% 0.00in /  0mm 0.0 W/m2
05:50 42.8 °F /  6 °C 20.7 °F /  -6.3 °C 30.16in /  1021.2hPa Calm     41% 0.00in /  0mm 0.0 W/m2
05:53 43.0 °F /  6.1 °C 20.8 °F /  -6.2 °C 30.16in /  1021.2hPa Calm     41% 0.00in /  0mm 0.0 W/m2
05:55 43.0 °F /  6.1 °C 20.8 °F /  -6.2 °C 30.16in /  1021.2hPa Calm     41% 0.00in /  0mm 0.0 W/m2
06:01 42.4 °F /  5.8 °C 20.5 °F /  -6.4 °C 30.16in /  1021.2hPa Calm     41% 0.00in /  0mm 0.0 W/m2
06:03 42.3 °F /  5.7 °C 21.4 °F /  -5.9 °C 30.16in /  1021.2hPa Calm     43% 0.00in /  0mm 0.0 W/m2
06:07 42.1 °F /  5.6 °C 21.2 °F /  -6 °C 30.16in /  1021.2hPa Calm     43% 0.00in /  0mm 0.0 W/m2
06:12 41.5 °F /  5.3 °C 20.7 °F /  -6.3 °C 30.16in /  1021.2hPa Calm     43% 0.00in /  0mm 0.0 W/m2
06:19 41.2 °F /  5.1 °C 20.8 °F /  -6.2 °C 30.16in /  1021.2hPa Calm     44% 0.00in /  0mm 0.0 W/m2
06:25 40.8 °F /  4.9 °C 21.2 °F /  -6 °C 30.17in /  1021.6hPa Calm     45% 0.00in /  0mm 0.0 W/m2
06:31 40.6 °F /  4.8 °C 21.6 °F /  -5.8 °C 30.17in /  1021.6hPa Calm     46% 0.00in /  0mm 0.0 W/m2
06:38 40.5 °F /  4.7 °C 21.4 °F /  -5.9 °C 30.17in /  1021.6hPa Calm     46% 0.00in /  0mm 5.0 W/m2
06:45 40.1 °F /  4.5 °C 21.0 °F /  -6.1 °C 30.17in /  1021.6hPa Calm     46% 0.00in /  0mm 9.0 W/m2
06:51 39.9 °F /  4.4 °C 20.8 °F /  -6.2 °C 30.17in /  1021.6hPa Calm     46% 0.00in /  0mm 11.0 W/m2
06:57 39.9 °F /  4.4 °C 20.8 °F /  -6.2 °C 30.18in /  1021.9hPa Calm     46% 0.00in /  0mm 12.0 W/m2
07:03 39.9 °F /  4.4 °C 20.8 °F /  -6.2 °C 30.18in /  1021.9hPa Calm     46% 0.00in /  0mm 14.0 W/m2
07:09 39.9 °F /  4.4 °C 21.4 °F /  -5.9 °C 30.18in /  1021.9hPa Calm     47% 0.00in /  0mm 14.0 W/m2
07:15 39.9 °F /  4.4 °C 21.4 °F /  -5.9 °C 30.18in /  1021.9hPa Calm     47% 0.00in /  0mm 16.0 W/m2
07:21 40.1 °F /  4.5 °C 21.6 °F /  -5.8 °C 30.18in /  1021.9hPa Calm     47% 0.00in /  0mm 18.0 W/m2
07:27 40.8 °F /  4.9 °C 22.1 °F /  -5.5 °C 30.19in /  1022.2hPa Calm     47% 0.00in /  0mm 19.0 W/m2
07:33 41.7 °F /  5.4 °C 22.5 °F /  -5.3 °C 30.19in /  1022.2hPa Calm     46% 0.00in /  0mm 21.0 W/m2
07:39 42.4 °F /  5.8 °C 21.0 °F /  -6.1 °C 30.19in /  1022.2hPa Calm   1.0mph /  1.6km/h 42% 0.00in /  0mm 21.0 W/m2
07:45 43.9 °F /  6.6 °C 20.5 °F /  -6.4 °C 30.19in /  1022.2hPa Calm     39% 0.00in /  0mm 23.0 W/m2
07:51 45.7 °F /  7.6 °C 20.8 °F /  -6.2 °C 30.19in /  1022.2hPa Calm   1.0mph /  1.6km/h 37% 0.00in /  0mm 23.0 W/m2
07:57 47.1 °F /  8.4 °C 22.1 °F /  -5.5 °C 30.19in /  1022.2hPa Calm     37% 0.00in /  0mm 25.0 W/m2
08:03 48.6 °F /  9.2 °C 22.8 °F /  -5.1 °C 30.19in /  1022.2hPa Calm     36% 0.00in /  0mm 26.0 W/m2
08:09 49.8 °F /  9.9 °C 21.2 °F /  -6 °C 30.19in /  1022.2hPa Calm   3.0mph /  4.8km/h 32% 0.00in /  0mm 26.0 W/m2
08:15 52.3 °F /  11.3 °C 21.0 °F /  -6.1 °C 30.19in /  1022.2hPa NE 0.9mph /  1.4km/h 5.0mph /  8km/h 29% 0.00in /  0mm 116.0 W/m2
08:21 55.2 °F /  12.9 °C 20.8 °F /  -6.2 °C 30.19in /  1022.2hPa ESE 6.0mph /  9.7km/h 6.0mph /  9.7km/h 26% 0.00in /  0mm 355.0 W/m2
08:27 57.6 °F /  14.2 °C 19.9 °F /  -6.7 °C 30.19in /  1022.2hPa NE 2.0mph /  3.2km/h 6.0mph /  9.7km/h 23% 0.00in /  0mm 374.0 W/m2
08:33 59.4 °F /  15.2 °C 20.5 °F /  -6.4 °C 30.19in /  1022.2hPa Calm   5.0mph /  8km/h 22% 0.00in /  0mm 397.0 W/m2
08:39 60.4 °F /  15.8 °C 20.3 °F /  -6.5 °C 30.18in /  1021.9hPa NE 4.0mph /  6.4km/h 8.0mph /  12.9km/h 21% 0.00in /  0mm 417.0 W/m2
08:45 61.7 °F /  16.5 °C 20.1 °F /  -6.6 °C 30.19in /  1022.2hPa Calm   6.0mph /  9.7km/h 20% 0.00in /  0mm 434.0 W/m2
08:51 62.6 °F /  17 °C 19.8 °F /  -6.8 °C 30.19in /  1022.2hPa NE 2.9mph /  4.7km/h 11.0mph /  17.7km/h 19% 0.00in /  0mm 452.0 W/m2
08:58 63.3 °F /  17.4 °C 20.3 °F /  -6.5 °C 30.19in /  1022.2hPa ENE 0.9mph /  1.4km/h 7.0mph /  11.3km/h 19% 0.00in /  0mm 471.0 W/m2
09:04 64.0 °F /  17.8 °C 19.6 °F /  -6.9 °C 30.19in /  1022.2hPa NE 4.0mph /  6.4km/h 8.0mph /  12.9km/h 18% 0.00in /  0mm 487.0 W/m2
09:10 64.6 °F /  18.1 °C 20.1 °F /  -6.6 °C 30.19in /  1022.2hPa NE 6.0mph /  9.7km/h 8.0mph /  12.9km/h 18% 0.00in /  0mm 504.0 W/m2
09:16 64.9 °F /  18.3 °C 20.5 °F /  -6.4 °C 30.18in /  1021.9hPa NNE 4.9mph /  7.9km/h 7.0mph /  11.3km/h 18% 0.00in /  0mm 520.0 W/m2
09:22 65.7 °F /  18.7 °C 21.0 °F /  -6.1 °C 30.19in /  1022.2hPa NE 2.0mph /  3.2km/h 7.0mph /  11.3km/h 18% 0.00in /  0mm 536.0 W/m2
09:28 66.2 °F /  19 °C 20.1 °F /  -6.6 °C 30.19in /  1022.2hPa ENE 4.9mph /  7.9km/h 9.0mph /  14.5km/h 17% 0.00in /  0mm 554.0 W/m2
09:34 66.7 °F /  19.3 °C 20.5 °F /  -6.4 °C 30.19in /  1022.2hPa Calm   9.0mph /  14.5km/h 17% 0.00in /  0mm 568.0 W/m2
09:40 66.9 °F /  19.4 °C 20.7 °F /  -6.3 °C 30.19in /  1022.2hPa North 0.9mph /  1.4km/h 5.0mph /  8km/h 17% 0.00in /  0mm 582.0 W/m2
09:46 67.6 °F /  19.8 °C 21.2 °F /  -6 °C 30.19in /  1022.2hPa NE 2.0mph /  3.2km/h 8.0mph /  12.9km/h 17% 0.00in /  0mm 596.0 W/m2
09:52 68.0 °F /  20 °C 21.6 °F /  -5.8 °C 30.19in /  1022.2hPa NNE 0.9mph /  1.4km/h 8.0mph /  12.9km/h 17% 0.00in /  0mm 606.0 W/m2
09:59 68.4 °F /  20.2 °C 20.5 °F /  -6.4 °C 30.19in /  1022.2hPa NNW 0.9mph /  1.4km/h 4.0mph /  6.4km/h 16% 0.00in /  0mm 621.0 W/m2
10:05 68.9 °F /  20.5 °C 20.8 °F /  -6.2 °C 30.19in /  1022.2hPa Calm   4.0mph /  6.4km/h 16% 0.00in /  0mm 633.0 W/m2
10:11 69.6 °F /  20.9 °C 21.4 °F /  -5.9 °C 30.19in /  1022.2hPa East 0.9mph /  1.4km/h 5.0mph /  8km/h 16% 0.00in /  0mm 642.0 W/m2
10:17 70.5 °F /  21.4 °C 20.7 °F /  -6.3 °C 30.19in /  1022.2hPa NNW 2.0mph /  3.2km/h 5.0mph /  8km/h 15% 0.00in /  0mm 654.0 W/m2
10:23 70.9 °F /  21.6 °C 20.8 °F /  -6.2 °C 30.19in /  1022.2hPa Calm   3.0mph /  4.8km/h 15% 0.00in /  0mm 664.0 W/m2
10:29 71.2 °F /  21.8 °C 22.8 °F /  -5.1 °C 30.19in /  1022.2hPa NE 0.9mph /  1.4km/h 6.0mph /  9.7km/h 16% 0.00in /  0mm 673.0 W/m2
10:35 71.4 °F /  21.9 °C 21.4 °F /  -5.9 °C 30.18in /  1021.9hPa Calm   6.0mph /  9.7km/h 15% 0.00in /  0mm 680.0 W/m2
10:41 71.8 °F /  22.1 °C 21.6 °F /  -5.8 °C 30.18in /  1021.9hPa Calm   1.0mph /  1.6km/h 15% 0.00in /  0mm 689.0 W/m2
10:47 72.1 °F /  22.3 °C 21.9 °F /  -5.6 °C 30.17in /  1021.6hPa NNE 2.0mph /  3.2km/h 5.0mph /  8km/h 15% 0.00in /  0mm 696.0 W/m2
10:53 72.3 °F /  22.4 °C 22.1 °F /  -5.5 °C 30.17in /  1021.6hPa North 0.9mph /  1.4km/h 5.0mph /  8km/h 15% 0.00in /  0mm 703.0 W/m2
10:59 72.9 °F /  22.7 °C 22.5 °F /  -5.3 °C 30.17in /  1021.6hPa Calm   4.0mph /  6.4km/h 15% 0.00in /  0mm 710.0 W/m2
11:05 73.2 °F /  22.9 °C 22.8 °F /  -5.1 °C 30.17in /  1021.6hPa NE 0.9mph /  1.4km/h 6.0mph /  9.7km/h 15% 0.00in /  0mm 717.0 W/m2
11:11 73.0 °F /  22.8 °C 22.6 °F /  -5.2 °C 30.17in /  1021.6hPa Calm   1.0mph /  1.6km/h 15% 0.00in /  0mm 719.0 W/m2
11:17 73.2 °F /  22.9 °C 22.8 °F /  -5.1 °C 30.16in /  1021.2hPa Calm     15% 0.00in /  0mm 722.0 W/m2
11:25 73.2 °F /  22.9 °C 22.8 °F /  -5.1 °C 30.16in /  1021.2hPa NW 0.9mph /  1.4km/h 3.0mph /  4.8km/h 15% 0.00in /  0mm 729.0 W/m2
11:32 73.6 °F /  23.1 °C 23.0 °F /  -5 °C 30.16in /  1021.2hPa WSW 2.0mph /  3.2km/h 4.0mph /  6.4km/h 15% 0.00in /  0mm 731.0 W/m2
11:38 73.4 °F /  23 °C 23.0 °F /  -5 °C 30.16in /  1021.2hPa Calm   1.0mph /  1.6km/h 15% 0.00in /  0mm 733.0 W/m2
11:44 73.8 °F /  23.2 °C 23.2 °F /  -4.9 °C 30.15in /  1020.9hPa Calm   1.0mph /  1.6km/h 15% 0.00in /  0mm 735.0 W/m2
11:50 74.1 °F /  23.4 °C 21.9 °F /  -5.6 °C 30.15in /  1020.9hPa East 2.0mph /  3.2km/h 2.0mph /  3.2km/h 14% 0.00in /  0mm 733.0 W/m2
11:56 74.5 °F /  23.6 °C 22.1 °F /  -5.5 °C 30.15in /  1020.9hPa Calm   6.0mph /  9.7km/h 14% 0.00in /  0mm 733.0 W/m2
12:02 74.5 °F /  23.6 °C 22.1 °F /  -5.5 °C 30.14in /  1020.5hPa Calm   1.0mph /  1.6km/h 14% 0.00in /  0mm 733.0 W/m2
12:08 74.1 °F /  23.4 °C 21.9 °F /  -5.6 °C 30.14in /  1020.5hPa Calm   2.0mph /  3.2km/h 14% 0.00in /  0mm 731.0 W/m2
12:14 74.5 °F /  23.6 °C 22.1 °F /  -5.5 °C 30.14in /  1020.5hPa Calm   6.0mph /  9.7km/h 14% 0.00in /  0mm 731.0 W/m2
12:20 75.0 °F /  23.9 °C 20.8 °F /  -6.2 °C 30.13in /  1020.2hPa NNW 0.9mph /  1.4km/h 2.0mph /  3.2km/h 13% 0.00in /  0mm 726.0 W/m2
12:27 75.0 °F /  23.9 °C 20.8 °F /  -6.2 °C 30.12in /  1019.9hPa NNE 0.9mph /  1.4km/h 3.0mph /  4.8km/h 13% 0.00in /  0mm 722.0 W/m2
12:33 75.4 °F /  24.1 °C 21.2 °F /  -6 °C 30.12in /  1019.9hPa NE 0.9mph /  1.4km/h 5.0mph /  8km/h 13% 0.00in /  0mm 719.0 W/m2
12:39 75.4 °F /  24.1 °C 22.8 °F /  -5.1 °C 30.12in /  1019.9hPa Calm   4.0mph /  6.4km/h 14% 0.00in /  0mm 717.0 W/m2
12:45 75.6 °F /  24.2 °C 21.2 °F /  -6 °C 30.12in /  1019.9hPa Calm   3.0mph /  4.8km/h 13% 0.00in /  0mm 710.0 W/m2
12:51 75.9 °F /  24.4 °C 19.6 °F /  -6.9 °C 30.11in /  1019.5hPa SSW 2.0mph /  3.2km/h 10.0mph /  16.1km/h 12% 0.00in /  0mm 703.0 W/m2
12:57 75.4 °F /  24.1 °C 21.2 °F /  -6 °C 30.11in /  1019.5hPa Calm   1.0mph /  1.6km/h 13% 0.00in /  0mm 696.0 W/m2
13:03 75.6 °F /  24.2 °C 19.4 °F /  -7 °C 30.10in /  1019.2hPa North 0.9mph /  1.4km/h 2.0mph /  3.2km/h 12% 0.00in /  0mm 691.0 W/m2
13:10 75.7 °F /  24.3 °C 19.6 °F /  -6.9 °C 30.10in /  1019.2hPa ENE 6.9mph /  11.1km/h 9.0mph /  14.5km/h 12% 0.00in /  0mm 684.0 W/m2
13:15 75.6 °F /  24.2 °C 21.2 °F /  -6 °C 30.10in /  1019.2hPa East 2.9mph /  4.7km/h 4.0mph /  6.4km/h 13% 0.00in /  0mm 675.0 W/m2
13:22 75.7 °F /  24.3 °C 19.6 °F /  -6.9 °C 30.09in /  1018.8hPa Calm   2.0mph /  3.2km/h 12% 0.00in /  0mm 664.0 W/m2
13:28 75.7 °F /  24.3 °C 19.6 °F /  -6.9 °C 30.09in /  1018.8hPa NW 2.9mph /  4.7km/h 5.0mph /  8km/h 12% 0.00in /  0mm 654.0 W/m2
13:34 75.9 °F /  24.4 °C 19.6 °F /  -6.9 °C 30.09in /  1018.8hPa Calm   1.0mph /  1.6km/h 12% 0.00in /  0mm 645.0 W/m2
13:40 76.3 °F /  24.6 °C 19.9 °F /  -6.7 °C 30.08in /  1018.5hPa ESE 4.0mph /  6.4km/h 4.0mph /  6.4km/h 12% 0.00in /  0mm 633.0 W/m2
13:46 76.5 °F /  24.7 °C 20.1 °F /  -6.6 °C 30.08in /  1018.5hPa Calm   4.0mph /  6.4km/h 12% 0.00in /  0mm 621.0 W/m2
13:52 76.3 °F /  24.6 °C 18.0 °F /  -7.8 °C 30.08in /  1018.5hPa ESE 2.9mph /  4.7km/h 4.0mph /  6.4km/h 11% 0.00in /  0mm 608.0 W/m2
13:58 76.6 °F /  24.8 °C 20.3 °F /  -6.5 °C 30.07in /  1018.2hPa SW 0.9mph /  1.4km/h 3.0mph /  4.8km/h 12% 0.00in /  0mm 596.0 W/m2
14:04 76.5 °F /  24.7 °C 18.0 °F /  -7.8 °C 30.07in /  1018.2hPa Calm   2.0mph /  3.2km/h 11% 0.00in /  0mm 582.0 W/m2
14:11 76.3 °F /  24.6 °C 19.9 °F /  -6.7 °C 30.07in /  1018.2hPa Calm   6.0mph /  9.7km/h 12% 0.00in /  0mm 568.0 W/m2
14:17 75.9 °F /  24.4 °C 19.6 °F /  -6.9 °C 30.07in /  1018.2hPa NNE 2.0mph /  3.2km/h 5.0mph /  8km/h 12% 0.00in /  0mm 552.0 W/m2
14:23 75.9 °F /  24.4 °C 17.6 °F /  -8 °C 30.07in /  1018.2hPa Calm   1.0mph /  1.6km/h 11% 0.00in /  0mm 538.0 W/m2
14:29 76.3 °F /  24.6 °C 18.0 °F /  -7.8 °C 30.06in /  1017.8hPa SE 0.9mph /  1.4km/h 3.0mph /  4.8km/h 11% 0.00in /  0mm 522.0 W/m2
14:35 76.5 °F /  24.7 °C 18.0 °F /  -7.8 °C 30.06in /  1017.8hPa Calm     11% 0.00in /  0mm 506.0 W/m2
14:41 76.3 °F /  24.6 °C 18.0 °F /  -7.8 °C 30.06in /  1017.8hPa Calm   4.0mph /  6.4km/h 11% 0.00in /  0mm 490.0 W/m2
14:47 76.5 °F /  24.7 °C 18.0 °F /  -7.8 °C 30.06in /  1017.8hPa Calm   3.0mph /  4.8km/h 11% 0.00in /  0mm 471.0 W/m2
14:53 76.5 °F /  24.7 °C 18.0 °F /  -7.8 °C 30.06in /  1017.8hPa SSE 2.0mph /  3.2km/h 6.0mph /  9.7km/h 11% 0.00in /  0mm 454.0 W/m2
14:59 76.5 °F /  24.7 °C 18.0 °F /  -7.8 °C 30.06in /  1017.8hPa NNW 2.0mph /  3.2km/h 5.0mph /  8km/h 11% 0.00in /  0mm 436.0 W/m2
15:06 76.5 °F /  24.7 °C 18.0 °F /  -7.8 °C 30.06in /  1017.8hPa Calm   2.0mph /  3.2km/h 11% 0.00in /  0mm 420.0 W/m2
15:12 76.3 °F /  24.6 °C 18.0 °F /  -7.8 °C 30.06in /  1017.8hPa West 2.0mph /  3.2km/h 6.0mph /  9.7km/h 11% 0.00in /  0mm 401.0 W/m2
15:18 75.9 °F /  24.4 °C 17.6 °F /  -8 °C 30.06in /  1017.8hPa NE 2.0mph /  3.2km/h 4.0mph /  6.4km/h 11% 0.00in /  0mm 381.0 W/m2
15:24 75.6 °F /  24.2 °C 15.1 °F /  -9.4 °C 30.06in /  1017.8hPa North 2.0mph /  3.2km/h 6.0mph /  9.7km/h 10% 0.00in /  0mm 364.0 W/m2
15:30 75.4 °F /  24.1 °C 17.2 °F /  -8.2 °C 30.06in /  1017.8hPa Calm   3.0mph /  4.8km/h 11% 0.00in /  0mm 343.0 W/m2
15:36 75.2 °F /  24 °C 17.1 °F /  -8.3 °C 30.06in /  1017.8hPa East 4.0mph /  6.4km/h 8.0mph /  12.9km/h 11% 0.00in /  0mm 176.0 W/m2
15:42 75.0 °F /  23.9 °C 14.7 °F /  -9.6 °C 30.06in /  1017.8hPa Calm   3.0mph /  4.8km/h 10% 0.00in /  0mm 40.0 W/m2
15:48 74.7 °F /  23.7 °C 14.5 °F /  -9.7 °C 30.06in /  1017.8hPa Calm   1.0mph /  1.6km/h 10% 0.00in /  0mm 37.0 W/m2
15:54 74.5 °F /  23.6 °C 14.4 °F /  -9.8 °C 30.06in /  1017.8hPa North 2.0mph /  3.2km/h 9.0mph /  14.5km/h 10% 0.00in /  0mm 35.0 W/m2
16:01 74.3 °F /  23.5 °C 11.8 °F /  -11.2 °C 30.06in /  1017.8hPa ENE 2.0mph /  3.2km/h 6.0mph /  9.7km/h 9% 0.00in /  0mm 33.0 W/m2
16:07 74.1 °F /  23.4 °C 11.7 °F /  -11.3 °C 30.07in /  1018.2hPa East 2.9mph /  4.7km/h 4.0mph /  6.4km/h 9% 0.00in /  0mm 32.0 W/m2
16:13 73.9 °F /  23.3 °C 14.0 °F /  -10 °C 30.07in /  1018.2hPa NE 4.9mph /  7.9km/h 6.0mph /  9.7km/h 10% 0.00in /  0mm 26.0 W/m2
16:19 73.6 °F /  23.1 °C 13.6 °F /  -10.2 °C 30.07in /  1018.2hPa NE 0.9mph /  1.4km/h 2.0mph /  3.2km/h 10% 0.00in /  0mm 25.0 W/m2
16:25 73.2 °F /  22.9 °C 15.6 °F /  -9.1 °C 30.07in /  1018.2hPa ESE 4.0mph /  6.4km/h 5.0mph /  8km/h 11% 0.00in /  0mm 21.0 W/m2
16:31 72.7 °F /  22.6 °C 15.1 °F /  -9.4 °C 30.07in /  1018.2hPa NE 2.0mph /  3.2km/h 5.0mph /  8km/h 11% 0.00in /  0mm 19.0 W/m2
16:37 72.3 °F /  22.4 °C 14.9 °F /  -9.5 °C 30.08in /  1018.5hPa NE 2.9mph /  4.7km/h 7.0mph /  11.3km/h 11% 0.00in /  0mm 19.0 W/m2
16:44 72.0 °F /  22.2 °C 14.5 °F /  -9.7 °C 30.08in /  1018.5hPa North 2.0mph /  3.2km/h 6.0mph /  9.7km/h 11% 0.00in /  0mm 18.0 W/m2
16:50 71.4 °F /  21.9 °C 14.2 °F /  -9.9 °C 30.08in /  1018.5hPa ENE 2.9mph /  4.7km/h 3.0mph /  4.8km/h 11% 0.00in /  0mm 16.0 W/m2
16:56 71.1 °F /  21.7 °C 13.8 °F /  -10.1 °C 30.08in /  1018.5hPa NE 2.0mph /  3.2km/h 3.0mph /  4.8km/h 11% 0.00in /  0mm 16.0 W/m2
17:02 70.7 °F /  21.5 °C 13.6 °F /  -10.2 °C 30.08in /  1018.5hPa ENE 2.9mph /  4.7km/h 3.0mph /  4.8km/h 11% 0.00in /  0mm 12.0 W/m2
17:08 70.2 °F /  21.2 °C 15.1 °F /  -9.4 °C 30.09in /  1018.8hPa Calm   3.0mph /  4.8km/h 12% 0.00in /  0mm 11.0 W/m2
17:14 69.6 °F /  20.9 °C 14.7 °F /  -9.6 °C 30.09in /  1018.8hPa Calm   3.0mph /  4.8km/h 12% 0.00in /  0mm 9.0 W/m2
17:21 69.1 °F /  20.6 °C 14.4 °F /  -9.8 °C 30.09in /  1018.8hPa NE 4.0mph /  6.4km/h 7.0mph /  11.3km/h 12% 0.00in /  0mm 5.0 W/m2
17:27 68.5 °F /  20.3 °C 15.8 °F /  -9 °C 30.09in /  1018.8hPa Calm   2.0mph /  3.2km/h 13% 0.00in /  0mm 0.0 W/m2
17:32 68.4 °F /  20.2 °C 15.6 °F /  -9.1 °C 30.10in /  1019.2hPa Calm   2.0mph /  3.2km/h 13% 0.00in /  0mm 0.0 W/m2
17:39 67.3 °F /  19.6 °C 16.5 °F /  -8.6 °C 30.10in /  1019.2hPa Calm   1.0mph /  1.6km/h 14% 0.00in /  0mm 0.0 W/m2
17:45 66.6 °F /  19.2 °C 15.8 °F /  -9 °C 30.10in /  1019.2hPa Calm   2.0mph /  3.2km/h 14% 0.00in /  0mm 0.0 W/m2
17:51 65.7 °F /  18.7 °C 15.1 °F /  -9.4 °C 30.10in /  1019.2hPa Calm   1.0mph /  1.6km/h 14% 0.00in /  0mm 0.0 W/m2
17:57 64.6 °F /  18.1 °C 15.8 °F /  -9 °C 30.10in /  1019.2hPa Calm     15% 0.00in /  0mm 0.0 W/m2
18:03 63.7 °F /  17.6 °C 15.1 °F /  -9.4 °C 30.10in /  1019.2hPa Calm   1.0mph /  1.6km/h 15% 0.00in /  0mm 0.0 W/m2
18:10 62.8 °F /  17.1 °C 14.4 °F /  -9.8 °C 30.11in /  1019.5hPa Calm   2.0mph /  3.2km/h 15% 0.00in /  0mm 0.0 W/m2
18:16 62.1 °F /  16.7 °C 13.8 °F /  -10.1 °C 30.11in /  1019.5hPa Calm   1.0mph /  1.6km/h 15% 0.00in /  0mm 0.0 W/m2
18:22 61.3 °F /  16.3 °C 14.7 °F /  -9.6 °C 30.11in /  1019.5hPa Calm   1.0mph /  1.6km/h 16% 0.00in /  0mm 0.0 W/m2
18:28 60.6 °F /  15.9 °C 14.2 °F /  -9.9 °C 30.11in /  1019.5hPa Calm   2.0mph /  3.2km/h 16% 0.00in /  0mm 0.0 W/m2
18:34 60.1 °F /  15.6 °C 13.6 °F /  -10.2 °C 30.11in /  1019.5hPa Calm     16% 0.00in /  0mm 0.0 W/m2
18:40 59.5 °F /  15.3 °C 14.7 °F /  -9.6 °C 30.11in /  1019.5hPa Calm   1.0mph /  1.6km/h 17% 0.00in /  0mm 0.0 W/m2
18:46 59.0 °F /  15 °C 14.2 °F /  -9.9 °C 30.11in /  1019.5hPa ENE 0.9mph /  1.4km/h 1.0mph /  1.6km/h 17% 0.00in /  0mm 0.0 W/m2
18:52 58.5 °F /  14.7 °C 13.8 °F /  -10.1 °C 30.11in /  1019.5hPa Calm   1.0mph /  1.6km/h 17% 0.00in /  0mm 0.0 W/m2
18:59 57.9 °F /  14.4 °C 14.7 °F /  -9.6 °C 30.11in /  1019.5hPa Calm   1.0mph /  1.6km/h 18% 0.00in /  0mm 0.0 W/m2
19:05 57.4 °F /  14.1 °C 14.2 °F /  -9.9 °C 30.12in /  1019.9hPa Calm   1.0mph /  1.6km/h 18% 0.00in /  0mm 0.0 W/m2
19:11 56.8 °F /  13.8 °C 13.8 °F /  -10.1 °C 30.12in /  1019.9hPa Calm   2.0mph /  3.2km/h 18% 0.00in /  0mm 0.0 W/m2
19:17 56.5 °F /  13.6 °C 14.7 °F /  -9.6 °C 30.12in /  1019.9hPa Calm   1.0mph /  1.6km/h 19% 0.00in /  0mm 0.0 W/m2
19:23 56.1 °F /  13.4 °C 14.4 °F /  -9.8 °C 30.13in /  1020.2hPa Calm     19% 0.00in /  0mm 0.0 W/m2
19:29 55.9 °F /  13.3 °C 14.2 °F /  -9.9 °C 30.13in /  1020.2hPa Calm   1.0mph /  1.6km/h 19% 0.00in /  0mm 0.0 W/m2
19:35 55.6 °F /  13.1 °C 14.0 °F /  -10 °C 30.13in /  1020.2hPa Calm   1.0mph /  1.6km/h 19% 0.00in /  0mm 0.0 W/m2
19:42 55.2 °F /  12.9 °C 14.9 °F /  -9.5 °C 30.13in /  1020.2hPa East 0.9mph /  1.4km/h 2.0mph /  3.2km/h 20% 0.00in /  0mm 0.0 W/m2
19:48 54.9 °F /  12.7 °C 14.5 °F /  -9.7 °C 30.13in /  1020.2hPa East 0.9mph /  1.4km/h 1.0mph /  1.6km/h 20% 0.00in /  0mm 0.0 W/m2
19:54 54.7 °F /  12.6 °C 14.4 °F /  -9.8 °C 30.13in /  1020.2hPa East 0.9mph /  1.4km/h 2.0mph /  3.2km/h 20% 0.00in /  0mm 0.0 W/m2
20:00 54.3 °F /  12.4 °C 14.0 °F /  -10 °C 30.13in /  1020.2hPa Calm   3.0mph /  4.8km/h 20% 0.00in /  0mm 0.0 W/m2
20:06 54.0 °F /  12.2 °C 13.8 °F /  -10.1 °C 30.13in /  1020.2hPa Calm   4.0mph /  6.4km/h 20% 0.00in /  0mm 0.0 W/m2
20:12 53.8 °F /  12.1 °C 13.6 °F /  -10.2 °C 30.13in /  1020.2hPa ENE 2.0mph /  3.2km/h 3.0mph /  4.8km/h 20% 0.00in /  0mm 0.0 W/m2
20:19 53.8 °F /  12.1 °C 13.6 °F /  -10.2 °C 30.14in /  1020.5hPa East 0.9mph /  1.4km/h 4.0mph /  6.4km/h 20% 0.00in /  0mm 0.0 W/m2
20:25 53.4 °F /  11.9 °C 13.3 °F /  -10.4 °C 30.14in /  1020.5hPa Calm   2.0mph /  3.2km/h 20% 0.00in /  0mm 0.0 W/m2
20:31 53.4 °F /  11.9 °C 13.3 °F /  -10.4 °C 30.14in /  1020.5hPa Calm   4.0mph /  6.4km/h 20% 0.00in /  0mm 0.0 W/m2
20:37 53.2 °F /  11.8 °C 13.1 °F /  -10.5 °C 30.14in /  1020.5hPa ENE 2.9mph /  4.7km/h 3.0mph /  4.8km/h 20% 0.00in /  0mm 0.0 W/m2
20:43 53.2 °F /  11.8 °C 13.1 °F /  -10.5 °C 30.14in /  1020.5hPa ESE 0.9mph /  1.4km/h 3.0mph /  4.8km/h 20% 0.00in /  0mm 0.0 W/m2
20:49 53.1 °F /  11.7 °C 13.1 °F /  -10.5 °C 30.14in /  1020.5hPa Calm   2.0mph /  3.2km/h 20% 0.00in /  0mm 0.0 W/m2
20:55 52.9 °F /  11.6 °C 12.9 °F /  -10.6 °C 30.14in /  1020.5hPa Calm   2.0mph /  3.2km/h 20% 0.00in /  0mm 0.0 W/m2
21:02 52.5 °F /  11.4 °C 12.6 °F /  -10.8 °C 30.14in /  1020.5hPa East 0.9mph /  1.4km/h 2.0mph /  3.2km/h 20% 0.00in /  0mm 0.0 W/m2
21:08 52.2 °F /  11.2 °C 12.2 °F /  -11 °C 30.14in /  1020.5hPa Calm   3.0mph /  4.8km/h 20% 0.00in /  0mm 0.0 W/m2
21:14 52.0 °F /  11.1 °C 12.2 °F /  -11 °C 30.14in /  1020.5hPa Calm   2.0mph /  3.2km/h 20% 0.00in /  0mm 0.0 W/m2
21:20 51.6 °F /  10.9 °C 11.8 °F /  -11.2 °C 30.14in /  1020.5hPa Calm     20% 0.00in /  0mm 0.0 W/m2
21:26 51.4 °F /  10.8 °C 11.7 °F /  -11.3 °C 30.14in /  1020.5hPa Calm   2.0mph /  3.2km/h 20% 0.00in /  0mm 0.0 W/m2
21:32 51.3 °F /  10.7 °C 11.5 °F /  -11.4 °C 30.14in /  1020.5hPa Calm   1.0mph /  1.6km/h 20% 0.00in /  0mm 0.0 W/m2
21:38 51.1 °F /  10.6 °C 11.3 °F /  -11.5 °C 30.15in /  1020.9hPa Calm   2.0mph /  3.2km/h 20% 0.00in /  0mm 0.0 W/m2
21:44 50.7 °F /  10.4 °C 11.1 °F /  -11.6 °C 30.14in /  1020.5hPa East 0.9mph /  1.4km/h 3.0mph /  4.8km/h 20% 0.00in /  0mm 0.0 W/m2
21:51 50.7 °F /  10.4 °C 11.1 °F /  -11.6 °C 30.15in /  1020.9hPa Calm   2.0mph /  3.2km/h 20% 0.00in /  0mm 0.0 W/m2
21:57 50.5 °F /  10.3 °C 12.0 °F /  -11.1 °C 30.15in /  1020.9hPa Calm   2.0mph /  3.2km/h 21% 0.00in /  0mm 0.0 W/m2
22:03 50.4 °F /  10.2 °C 11.8 °F /  -11.2 °C 30.15in /  1020.9hPa East 0.9mph /  1.4km/h 3.0mph /  4.8km/h 21% 0.00in /  0mm 0.0 W/m2
22:09 50.2 °F /  10.1 °C 11.7 °F /  -11.3 °C 30.15in /  1020.9hPa ENE 2.0mph /  3.2km/h 3.0mph /  4.8km/h 21% 0.00in /  0mm 0.0 W/m2
22:15 50.0 °F /  10 °C 11.7 °F /  -11.3 °C 30.15in /  1020.9hPa Calm   2.0mph /  3.2km/h 21% 0.00in /  0mm 0.0 W/m2
22:17 49.8 °F /  9.9 °C 11.5 °F /  -11.4 °C 30.15in /  1020.9hPa Calm   2.0mph /  3.2km/h 21% 0.00in /  0mm 0.0 W/m2
22:23 49.8 °F /  9.9 °C 11.5 °F /  -11.4 °C 30.15in /  1020.9hPa Calm   1.0mph /  1.6km/h 21% 0.00in /  0mm 0.0 W/m2
22:29 49.8 °F /  9.9 °C 11.5 °F /  -11.4 °C 30.15in /  1020.9hPa NNE 0.9mph /  1.4km/h 3.0mph /  4.8km/h 21% 0.00in /  0mm 0.0 W/m2
22:35 49.8 °F /  9.9 °C 11.5 °F /  -11.4 °C 30.15in /  1020.9hPa Calm   2.0mph /  3.2km/h 21% 0.00in /  0mm 0.0 W/m2
22:41 50.2 °F /  10.1 °C 11.7 °F /  -11.3 °C 30.15in /  1020.9hPa East 0.9mph /  1.4km/h 8.0mph /  12.9km/h 21% 0.00in /  0mm 0.0 W/m2
22:48 50.5 °F /  10.3 °C 10.9 °F /  -11.7 °C 30.15in /  1020.9hPa SE 2.9mph /  4.7km/h 6.0mph /  9.7km/h 20% 0.00in /  0mm 0.0 W/m2
22:54 51.3 °F /  10.7 °C 11.5 °F /  -11.4 °C 30.15in /  1020.9hPa East 2.9mph /  4.7km/h 5.0mph /  8km/h 20% 0.00in /  0mm 0.0 W/m2
23:00 51.8 °F /  11 °C 10.8 °F /  -11.8 °C 30.15in /  1020.9hPa Calm   6.0mph /  9.7km/h 19% 0.00in /  0mm 0.0 W/m2
23:06 52.2 °F /  11.2 °C 11.1 °F /  -11.6 °C 30.14in /  1020.5hPa Calm   5.0mph /  8km/h 19% 0.00in /  0mm 0.0 W/m2
23:12 52.3 °F /  11.3 °C 11.3 °F /  -11.5 °C 30.14in /  1020.5hPa Calm   3.0mph /  4.8km/h 19% 0.00in /  0mm 0.0 W/m2
23:18 52.3 °F /  11.3 °C 11.3 °F /  -11.5 °C 30.14in /  1020.5hPa SE 2.9mph /  4.7km/h 3.0mph /  4.8km/h 19% 0.00in /  0mm 0.0 W/m2
23:24 52.3 °F /  11.3 °C 11.3 °F /  -11.5 °C 30.14in /  1020.5hPa East 0.9mph /  1.4km/h 1.0mph /  1.6km/h 19% 0.00in /  0mm 0.0 W/m2
23:30 52.2 °F /  11.2 °C 11.1 °F /  -11.6 °C 30.14in /  1020.5hPa North 0.9mph /  1.4km/h 2.0mph /  3.2km/h 19% 0.00in /  0mm 0.0 W/m2
23:36 52.2 °F /  11.2 °C 11.1 °F /  -11.6 °C 30.14in /  1020.5hPa Calm   4.0mph /  6.4km/h 19% 0.00in /  0mm 0.0 W/m2
23:43 52.0 °F /  11.1 °C 10.9 °F /  -11.7 °C 30.14in /  1020.5hPa Calm   3.0mph /  4.8km/h 19% 0.00in /  0mm 0.0 W/m2
23:49 52.0 °F /  11.1 °C 10.9 °F /  -11.7 °C 30.15in /  1020.9hPa Calm   2.0mph /  3.2km/h 19% 0.00in /  0mm 0.0 W/m2
23:55 52.0 °F /  11.1 °C 9.7 °F /  -12.4 °C 30.14in /  1020.5hPa Calm   3.0mph /  4.8km/h 18% 0.00in /  0mm 0.0 W/m2
Olympia, Windhoek, Namibia
Compliments of Weather Underground - 3 mb